createdAt,value
2022-10-24T03:31:32.197Z,99533.13
2022-10-24T03:34:01.630Z,99530.31
2022-10-24T03:36:29.604Z,99539.97
2022-10-24T03:38:57.646Z,99548.66
2022-10-24T03:41:25.442Z,99558.53
2022-10-24T03:43:53.503Z,99564.06
2022-10-24T03:46:21.318Z,99566.84
2022-10-24T03:48:49.459Z,99573.75
2022-10-24T03:51:18.687Z,99561.81
2022-10-24T03:53:46.713Z,99561.06
2022-10-24T03:56:14.579Z,99576.69
2022-10-24T03:58:42.694Z,99573.97
2022-10-24T04:01:17.004Z,99575.59
2022-10-24T04:03:45.706Z,99586.13
2022-10-24T04:06:14.482Z,99573.69
2022-10-24T04:08:43.969Z,99569.31
2022-10-24T04:11:12.754Z,99569.72
2022-10-24T04:13:40.772Z,99562.88
2022-10-24T04:16:09.030Z,99555.97
2022-10-24T04:18:37.037Z,99557.69
2022-10-24T04:21:05.432Z,99546.31
2022-10-24T04:23:38.574Z,99560.09
2022-10-24T04:26:07.869Z,99560.69
2022-10-24T04:28:35.816Z,99568.22
2022-10-24T04:31:03.603Z,99557.09
2022-10-24T04:33:31.736Z,99549.84
2022-10-24T04:35:59.599Z,99554.78
2022-10-24T04:38:32.559Z,99551.56
2022-10-24T04:41:02.177Z,99543.34
2022-10-24T04:43:31.705Z,99550.78
2022-10-24T04:45:59.759Z,99543.13
2022-10-24T04:48:27.752Z,99541.00
2022-10-24T04:50:56.428Z,99538.16
2022-10-24T04:53:24.417Z,99538.47
2022-10-24T04:55:52.561Z,99545.38
2022-10-24T04:58:20.858Z,99550.69
2022-10-24T05:00:50.402Z,99556.88
2022-10-24T05:03:18.588Z,99556.13
2022-10-24T05:05:46.734Z,99547.47
2022-10-24T05:08:14.518Z,99552.50
2022-10-24T05:10:42.754Z,99555.84
2022-10-24T05:13:11.051Z,99567.94
2022-10-24T05:15:38.867Z,99559.28
2022-10-24T05:18:08.501Z,99563.06
2022-10-24T05:20:36.827Z,99546.34
2022-10-24T05:23:04.727Z,99556.75
2022-10-24T05:25:32.751Z,99561.19
2022-10-24T05:28:00.460Z,99558.91
2022-10-24T05:30:28.536Z,99557.47
2022-10-24T05:32:56.477Z,99563.03
2022-10-24T05:35:25.850Z,99560.44
2022-10-24T05:37:53.557Z,99555.16
2022-10-24T05:40:21.631Z,99564.91
2022-10-24T05:42:50.827Z,99562.69
2022-10-24T05:45:19.629Z,99565.34
2022-10-24T05:47:47.888Z,99577.84
2022-10-24T05:50:16.616Z,99584.31
2022-10-24T05:52:47.211Z,99577.16
2022-10-24T05:55:17.887Z,99586.94
2022-10-24T05:57:47.153Z,99589.19
2022-10-24T06:00:17.274Z,99583.31
2022-10-24T06:05:15.610Z,99586.31
2022-10-24T06:07:45.474Z,99585.41
2022-10-24T06:10:14.328Z,99591.22
2022-10-24T06:12:42.488Z,99587.97
2022-10-24T06:15:11.824Z,99594.88
2022-10-24T06:17:39.871Z,99590.69
2022-10-24T06:20:08.984Z,99589.84
2022-10-24T06:22:37.082Z,99592.06
2022-10-24T06:25:07.272Z,99607.22
2022-10-24T06:27:36.605Z,99617.88
2022-10-24T06:30:05.320Z,99628.63
2022-10-24T06:32:33.487Z,99624.75
2022-10-24T06:35:02.071Z,99616.56
2022-10-24T06:37:30.258Z,99614.34
2022-10-24T06:39:58.100Z,99614.41
2022-10-24T06:42:27.224Z,99614.72
2022-10-24T06:44:55.100Z,99613.00
2022-10-24T06:47:22.770Z,99615.06
2022-10-24T06:49:50.661Z,99615.63
2022-10-24T06:52:18.760Z,99623.19
2022-10-24T06:54:46.667Z,99614.53
2022-10-24T06:57:14.622Z,99618.69
2022-10-24T06:59:43.862Z,99621.16
2022-10-24T07:02:14.407Z,99627.78
2022-10-24T07:04:42.767Z,99619.81
2022-10-24T07:07:16.157Z,99630.25
2022-10-24T07:09:44.484Z,99625.59
2022-10-24T07:12:12.683Z,99626.97
2022-10-24T07:14:40.616Z,99628.75
2022-10-24T07:17:09.928Z,99622.69
2022-10-24T07:19:37.760Z,99625.03
2022-10-24T07:22:06.646Z,99632.03
2022-10-24T07:24:34.895Z,99627.63
2022-10-24T07:27:02.792Z,99628.22
2022-10-24T07:29:30.780Z,99621.53
2022-10-24T07:31:59.666Z,99622.75
2022-10-24T07:34:28.886Z,99629.47
2022-10-24T07:36:56.924Z,99627.88
2022-10-24T07:39:24.855Z,99637.88
2022-10-24T07:41:52.695Z,99638.47
2022-10-24T07:44:20.933Z,99635.66
2022-10-24T07:46:48.806Z,99628.47
2022-10-24T07:49:17.077Z,99637.56
2022-10-24T07:51:46.754Z,99632.44
2022-10-24T07:54:14.615Z,99623.19
2022-10-24T07:56:42.411Z,99623.53
2022-10-24T07:59:29.760Z,99628.28
2022-10-24T08:01:58.380Z,99628.78
2022-10-24T08:04:26.625Z,99623.44
2022-10-24T08:06:55.878Z,99616.00
2022-10-24T08:09:24.498Z,99619.03
2022-10-24T08:11:52.771Z,99616.56
2022-10-24T08:14:20.488Z,99616.38
2022-10-24T08:16:52.045Z,99620.28
2022-10-24T08:19:19.804Z,99616.69
2022-10-24T08:21:52.890Z,99611.94
2022-10-24T08:24:21.970Z,99612.28
2022-10-24T08:26:49.910Z,99605.66
2022-10-24T08:29:22.327Z,99611.00
2022-10-24T08:31:51.656Z,99604.50
2022-10-24T08:34:20.137Z,99593.44
2022-10-24T08:36:49.127Z,99594.97
2022-10-24T08:39:17.728Z,99594.34
2022-10-24T08:41:51.256Z,99589.00
2022-10-24T08:44:26.771Z,99601.97
2022-10-24T08:46:59.916Z,99604.19
2022-10-24T08:49:39.378Z,99601.75
2022-10-24T08:52:20.509Z,99603.41
2022-10-24T08:54:55.817Z,99614.28
2022-10-24T08:57:31.651Z,99604.97
2022-10-24T09:00:04.885Z,99602.16
2022-10-24T09:02:39.745Z,99611.88
2022-10-24T09:05:22.301Z,99608.28
2022-10-24T09:07:53.632Z,99596.44
2022-10-24T09:10:27.840Z,99603.25
2022-10-24T09:12:57.030Z,99595.91
2022-10-24T09:15:34.731Z,99596.13
2022-10-24T09:18:02.993Z,99587.91
2022-10-24T09:20:33.732Z,99596.19
2022-10-24T09:23:05.174Z,99592.03
2022-10-24T09:25:35.691Z,99595.75
2022-10-24T09:28:07.454Z,99603.25
2022-10-24T09:30:37.603Z,99595.50
2022-10-24T09:33:15.868Z,99607.72
2022-10-24T09:35:44.325Z,99611.00
2022-10-24T09:38:33.672Z,99619.75
2022-10-24T09:41:05.205Z,99621.94
2022-10-24T09:43:40.444Z,99634.94
2022-10-24T09:46:10.941Z,99636.47
2022-10-24T09:48:53.239Z,99649.13
2022-10-24T09:51:33.563Z,99648.63
2022-10-24T09:54:06.524Z,99646.16
2022-10-24T09:56:39.928Z,99654.75
2022-10-24T09:59:28.581Z,99657.03
2022-10-24T10:02:19.606Z,99662.94
2022-10-24T10:04:48.823Z,99654.84
2022-10-24T10:07:20.082Z,99668.44
2022-10-24T10:09:55.647Z,99663.03
2022-10-24T10:12:31.210Z,99662.94
2022-10-24T10:14:59.409Z,99671.00
2022-10-24T10:17:31.378Z,99663.22
2022-10-24T10:20:00.161Z,99666.97
2022-10-24T10:22:29.723Z,99644.28
2022-10-24T10:24:59.692Z,99658.69
2022-10-24T10:27:34.687Z,99668.16
2022-10-24T10:30:15.967Z,99655.28
2022-10-24T10:32:55.504Z,99669.69
2022-10-24T10:35:27.796Z,99673.53
2022-10-24T10:38:01.116Z,99661.59
2022-10-24T10:40:32.536Z,99660.34
2022-10-24T10:43:18.367Z,99652.91
2022-10-24T10:45:48.791Z,99648.41
2022-10-24T10:48:40.266Z,99650.22
2022-10-24T10:51:17.479Z,99655.75
2022-10-24T10:53:55.164Z,99658.34
2022-10-24T10:56:35.312Z,99666.63
2022-10-24T10:59:23.551Z,99659.31
2022-10-24T11:02:00.938Z,99658.34
2022-10-24T11:04:38.543Z,99664.91
2022-10-24T11:07:14.086Z,99647.41
2022-10-24T11:09:45.737Z,99659.75
2022-10-24T11:12:18.510Z,99663.59
2022-10-24T11:14:51.238Z,99656.31
2022-10-24T11:17:24.382Z,99664.13
2022-10-24T11:20:04.234Z,99661.38
2022-10-24T11:22:38.404Z,99666.69
2022-10-24T11:25:10.871Z,99660.78
2022-10-24T11:27:45.225Z,99656.00
2022-10-24T11:30:16.346Z,99659.16
2022-10-24T11:32:50.405Z,99671.19
2022-10-24T11:35:26.800Z,99670.75
2022-10-24T11:37:59.738Z,99668.09
2022-10-24T11:40:30.005Z,99658.38
2022-10-24T11:43:05.110Z,99651.81
2022-10-24T11:45:40.050Z,99663.06
2022-10-24T11:48:15.237Z,99652.88
2022-10-24T11:50:49.776Z,99655.81
2022-10-24T11:53:45.818Z,99657.69
2022-10-24T11:56:20.412Z,99647.84
2022-10-24T11:58:57.786Z,99650.34
2022-10-24T12:01:45.577Z,99656.03
2022-10-24T12:04:44.126Z,99651.56
2022-10-24T12:10:19.673Z,99654.25
2022-10-24T12:13:08.949Z,99650.66
2022-10-24T12:15:47.729Z,99658.69
2022-10-24T12:18:30.423Z,99648.22
2022-10-24T12:21:03.026Z,99642.38
2022-10-24T12:23:32.482Z,99642.72
2022-10-24T12:26:07.429Z,99648.78
2022-10-24T12:28:36.465Z,99634.03
2022-10-24T12:31:22.351Z,99656.03
2022-10-24T12:34:31.979Z,99652.69
2022-10-24T12:37:11.986Z,99645.72
2022-10-24T12:39:45.770Z,99649.28
2022-10-24T12:42:41.763Z,99649.84
2022-10-24T12:45:29.541Z,99635.50
2022-10-24T12:48:27.403Z,99652.81
2022-10-24T12:51:00.153Z,99652.75
2022-10-24T12:53:37.805Z,99662.06
2022-10-24T12:59:02.154Z,99631.59
2022-10-24T13:01:37.978Z,99628.97
2022-10-24T13:04:37.487Z,99624.00
2022-10-24T13:07:48.328Z,99630.03
2022-10-24T13:10:45.593Z,99626.66
2022-10-24T13:13:45.705Z,99624.13
2022-10-24T13:16:26.127Z,99627.09
2022-10-24T13:19:09.327Z,99628.94
2022-10-24T13:21:47.162Z,99634.00
2022-10-24T13:24:25.673Z,99623.72
2022-10-24T13:27:26.296Z,99618.06
2022-10-24T13:30:25.501Z,99626.03
2022-10-24T13:33:40.945Z,99623.38
2022-10-24T13:36:16.825Z,99632.22
2022-10-24T13:38:50.394Z,99637.28
2022-10-24T13:41:26.466Z,99642.44
2022-10-24T13:43:57.759Z,99646.84
2022-10-24T13:46:31.479Z,99641.44
2022-10-24T13:49:02.855Z,99635.00
2022-10-24T13:51:38.843Z,99628.06
2022-10-24T13:54:14.938Z,99635.59
2022-10-24T13:56:45.346Z,99629.16
2022-10-24T13:59:30.679Z,99637.53
2022-10-24T14:02:02.946Z,99626.13
2022-10-24T14:04:35.092Z,99631.16
2022-10-24T14:07:06.090Z,99633.59
2022-10-24T14:09:41.158Z,99633.97
2022-10-24T14:12:18.652Z,99636.22
2022-10-24T14:14:49.441Z,99638.97
2022-10-24T14:17:24.041Z,99639.53
2022-10-24T14:19:57.266Z,99637.34
2022-10-24T14:22:29.474Z,99642.06
2022-10-24T14:24:57.869Z,99637.06
2022-10-24T14:27:26.424Z,99643.88
2022-10-24T14:29:59.048Z,99646.91
2022-10-24T14:32:29.944Z,99638.84
2022-10-24T14:37:35.888Z,99655.50
2022-10-24T14:40:05.713Z,99660.81
2022-10-24T14:42:34.368Z,99654.28
2022-10-24T14:45:02.787Z,99661.44
2022-10-24T14:47:32.960Z,99668.53
2022-10-24T14:50:03.234Z,99665.44
2022-10-24T14:52:37.053Z,99661.41
2022-10-24T14:55:08.906Z,99650.84
2022-10-24T14:57:39.262Z,99655.28
2022-10-24T15:00:19.894Z,99644.97
2022-10-24T15:02:49.649Z,99645.53
2022-10-24T15:05:31.333Z,99656.59
2022-10-24T15:08:22.538Z,99660.88
2022-10-24T15:11:02.569Z,99664.91
2022-10-24T15:13:33.628Z,99662.03
2022-10-24T15:16:02.897Z,99662.81
2022-10-24T15:18:33.272Z,99660.34
2022-10-24T15:21:07.152Z,99667.22
2022-10-24T15:23:37.908Z,99669.28
2022-10-24T15:26:12.457Z,99676.72
2022-10-24T15:28:47.691Z,99667.53
2022-10-24T15:31:18.144Z,99675.47
2022-10-24T15:33:47.033Z,99672.66
2022-10-24T15:36:22.979Z,99673.13
2022-10-24T15:38:55.304Z,99689.91
2022-10-24T15:41:24.003Z,99683.56
2022-10-24T15:43:51.823Z,99689.19
2022-10-24T15:46:22.186Z,99683.41
2022-10-24T15:48:50.891Z,99691.16
2022-10-24T15:51:22.384Z,99685.09
2022-10-24T15:53:51.861Z,99693.50
2022-10-24T15:56:19.969Z,99693.97
2022-10-24T16:01:26.468Z,99691.44
2022-10-24T16:03:55.001Z,99695.88
2022-10-24T16:06:24.861Z,99691.75
2022-10-24T16:08:53.197Z,99691.91
2022-10-24T16:11:21.323Z,99690.25
2022-10-24T16:13:49.797Z,99697.59
2022-10-24T16:16:17.593Z,99700.00
2022-10-24T16:18:45.891Z,99697.69
2022-10-24T16:21:18.476Z,99698.13
2022-10-24T16:23:48.682Z,99697.63
2022-10-24T16:26:17.646Z,99697.38
2022-10-24T16:28:45.583Z,99700.81
2022-10-24T16:31:19.608Z,99705.56
2022-10-24T16:33:47.927Z,99708.09
2022-10-24T16:36:18.466Z,99715.66
2022-10-24T16:38:50.486Z,99714.09
2022-10-24T16:41:19.726Z,99725.53
2022-10-24T16:43:49.932Z,99720.22
2022-10-24T16:46:19.551Z,99729.06
2022-10-24T16:48:48.705Z,99721.63
2022-10-24T16:51:19.741Z,99724.88
2022-10-24T16:53:47.980Z,99729.47
2022-10-24T16:56:17.736Z,99719.56
2022-10-24T16:58:45.887Z,99716.72
2022-10-24T17:01:16.132Z,99730.16
